Time;durP1;ratioP1;P1;durP2;ratioP2;P2;SDS_P1;SDS_P2;PMS_P1;PMS_P2;Temp;Humidity;BMP_temperature;BMP_pressure;BME280_temperature;BME280_humidity;BME280_pressure;Samples;Min_cycle;Max_cycle;Signal;HPM_P1;HPM_P2
2021/10/21 00:00:53;;;;;;;7.43;3.88;;;15.80;84.60;;;;;;5074218;28;20021;-49
2021/10/21 00:03:19;;;;;;;7.10;4.13;;;15.80;84.00;;;;;;5073940;28;20017;-49
2021/10/21 00:05:45;;;;;;;5.22;2.65;;;15.80;84.60;;;;;;5073899;28;20051;-48
2021/10/21 00:08:10;;;;;;;6.68;3.10;;;15.80;83.70;;;;;;5074206;28;20052;-48
2021/10/21 00:10:36;;;;;;;7.03;3.42;;;15.80;83.90;;;;;;5073945;28;20023;-48
2021/10/21 00:13:03;;;;;;;7.50;3.72;;;15.80;83.60;;;;;;5074084;28;20075;-48
2021/10/21 00:15:29;;;;;;;3.83;2.92;;;15.80;84.00;;;;;;5056294;28;20116;-48
2021/10/21 00:17:54;;;;;;;5.25;4.00;;;15.80;83.80;;;;;;5073680;28;20099;-48
2021/10/21 00:20:20;;;;;;;6.38;3.60;;;15.80;83.50;;;;;;5073955;28;20063;-47
2021/10/21 00:22:46;;;;;;;10.35;3.90;;;16.00;83.00;;;;;;5073543;28;20038;-48
2021/10/21 00:25:12;;;;;;;11.60;4.22;;;16.10;82.40;;;;;;5055965;28;20024;-47
2021/10/21 00:27:38;;;;;;;10.70;4.30;;;16.10;82.10;;;;;;5073549;28;20024;-49
2021/10/21 00:30:04;;;;;;;9.90;4.28;;;16.00;82.60;;;;;;5073726;28;20114;-49
2021/10/21 00:32:30;;;;;;;13.70;3.50;;;15.90;83.90;;;;;;5073590;28;20020;-52
2021/10/21 00:34:55;;;;;;;3.42;3.13;;;15.80;84.10;;;;;;5073484;28;20483;-50
2021/10/21 00:37:21;;;;;;;10.18;4.47;;;15.70;85.10;;;;;;5055442;28;20169;-51
2021/10/21 00:39:47;;;;;;;4.88;3.25;;;15.60;85.70;;;;;;5073452;28;20077;-50
2021/10/21 00:42:12;;;;;;;9.52;3.50;;;15.60;85.90;;;;;;5073218;28;20031;-50
2021/10/21 00:44:38;;;;;;;10.23;4.22;;;15.40;87.10;;;;;;5073370;28;20021;-49
2021/10/21 00:47:04;;;;;;;8.35;4.38;;;15.20;88.70;;;;;;5073273;28;20116;-50
2021/10/21 00:49:30;;;;;;;7.63;3.47;;;15.10;89.10;;;;;;5073562;28;20047;-49
2021/10/21 00:51:56;;;;;;;10.48;5.35;;;14.90;89.70;;;;;;5073129;28;20024;-49
2021/10/21 00:54:22;;;;;;;5.68;3.95;;;14.80;90.80;;;;;;5073378;28;20120;-48
2021/10/21 00:56:51;;;;;;;6.53;4.28;;;14.80;91.00;;;;;;5073103;28;20028;-48
2021/10/21 00:59:17;;;;;;;12.77;5.07;;;14.70;91.50;;;;;;5055331;28;20464;-48
2021/10/21 01:01:42;;;;;;;8.90;4.43;;;14.60;92.10;;;;;;5072668;28;20036;-48
2021/10/21 01:04:08;;;;;;;10.70;4.82;;;14.50;92.50;;;;;;5072813;28;20495;-49
2021/10/21 01:06:34;;;;;;;11.20;5.32;;;14.50;92.90;;;;;;5072560;28;20484;-52
2021/10/21 01:09:03;;;;;;;9.65;5.53;;;14.50;92.90;;;;;;5073058;28;20037;-51
2021/10/21 01:11:30;;;;;;;10.32;6.20;;;14.40;93.20;;;;;;5073400;28;20088;-49
2021/10/21 01:13:55;;;;;;;11.48;4.50;;;14.40;93.20;;;;;;5073085;28;20021;-53
2021/10/21 01:16:21;;;;;;;8.30;4.65;;;14.40;93.20;;;;;;5072981;28;20035;-48
2021/10/21 01:18:47;;;;;;;10.85;4.10;;;14.40;93.40;;;;;;5072747;28;20024;-49
2021/10/21 01:21:13;;;;;;;10.25;4.63;;;14.40;93.20;;;;;;5072872;28;20113;-48
2021/10/21 01:23:40;;;;;;;9.55;4.60;;;14.50;92.90;;;;;;5072673;28;20051;-51
2021/10/21 01:26:12;;;;;;;8.85;4.60;;;14.50;93.10;;;;;;5072835;28;20028;-52
2021/10/21 01:28:38;;;;;;;6.03;4.05;;;14.50;93.20;;;;;;5077028;28;20051;-49
2021/10/21 01:31:04;;;;;;;8.90;4.13;;;14.50;93.10;;;;;;5079409;28;20112;-50
2021/10/21 01:33:30;;;;;;;9.25;4.20;;;14.50;92.70;;;;;;5079485;28;20051;-51
2021/10/21 01:35:56;;;;;;;5.57;3.65;;;14.40;92.10;;;;;;5079367;28;20032;-48
2021/10/21 01:38:21;;;;;;;8.40;4.03;;;14.50;91.80;;;;;;5061298;28;20111;-49
2021/10/21 01:40:47;;;;;;;4.18;2.95;;;14.40;91.80;;;;;;5079449;28;20025;-53
2021/10/21 01:43:14;;;;;;;3.83;3.08;;;14.40;90.70;;;;;;5079334;28;20384;-49
2021/10/21 01:45:39;;;;;;;4.57;2.25;;;14.60;87.50;;;;;;5079145;28;20028;-47
2021/10/21 01:48:05;;;;;;;5.25;2.80;;;14.70;86.70;;;;;;5079214;28;20024;-47
2021/10/21 01:50:32;;;;;;;2.35;1.35;;;14.70;85.50;;;;;;5079243;28;20031;-51
2021/10/21 01:52:58;;;;;;;2.17;1.73;;;14.60;82.60;;;;;;5079215;28;20032;-49
2021/10/21 01:55:25;;;;;;;2.13;1.25;;;14.50;79.90;;;;;;5061387;28;20071;-48
2021/10/21 01:57:51;;;;;;;3.35;1.13;;;14.50;78.40;;;;;;5079471;28;20051;-49
2021/10/21 02:00:19;;;;;;;1.25;1.05;;;14.50;75.80;;;;;;5061862;28;20032;-49
2021/10/21 02:02:49;;;;;;;4.60;1.33;;;14.30;76.20;;;;;;5079218;28;20044;-51
2021/10/21 02:05:16;;;;;;;1.08;0.80;;;14.30;76.40;;;;;;5079033;28;20052;-50
2021/10/21 02:07:42;;;;;;;1.65;0.80;;;14.30;74.80;;;;;;5079105;28;20495;-48
2021/10/21 02:10:10;;;;;;;3.33;0.80;;;14.30;75.10;;;;;;5060943;28;20016;-47
2021/10/21 02:12:36;;;;;;;4.68;1.20;;;14.20;74.40;;;;;;5078866;28;20052;-49
2021/10/21 02:15:02;;;;;;;5.13;0.60;;;14.30;73.70;;;;;;5060941;28;20078;-47
2021/10/21 02:17:28;;;;;;;3.00;1.33;;;14.20;74.30;;;;;;5078951;28;20032;-47
2021/10/21 02:19:54;;;;;;;3.30;0.80;;;14.30;72.90;;;;;;5079024;28;20484;-47
2021/10/21 02:22:19;;;;;;;7.30;1.13;;;14.30;72.10;;;;;;5078991;28;20031;-48
2021/10/21 02:24:45;;;;;;;5.55;1.30;;;14.10;74.80;;;;;;5061037;28;20073;-47
2021/10/21 02:27:12;;;;;;;3.78;1.05;;;13.90;77.20;;;;;;5061025;28;20111;-51
2021/10/21 02:29:38;;;;;;;3.55;0.82;;;13.70;77.50;;;;;;5079174;28;20070;-52
2021/10/21 02:32:04;;;;;;;3.05;1.25;;;13.30;80.30;;;;;;5078879;28;20029;-47
2021/10/21 02:34:29;;;;;;;2.95;1.10;;;12.80;83.80;;;;;;5078817;28;20511;-51
2021/10/21 02:36:55;;;;;;;7.20;1.35;;;12.60;85.90;;;;;;5060909;28;20025;-51
2021/10/21 02:39:21;;;;;;;6.45;1.73;;;12.50;86.10;;;;;;5058313;28;20036;-52
2021/10/21 02:41:46;;;;;;;3.88;1.30;;;12.40;87.10;;;;;;5075657;28;20375;-50
2021/10/21 02:44:12;;;;;;;6.00;1.33;;;12.50;86.30;;;;;;5075709;28;20090;-49
2021/10/21 02:46:38;;;;;;;2.60;1.90;;;12.60;85.70;;;;;;5075720;28;20538;-47
2021/10/21 02:49:04;;;;;;;5.50;1.55;;;12.60;85.60;;;;;;5057626;28;20357;-48
2021/10/21 02:51:29;;;;;;;3.08;1.83;;;12.70;85.80;;;;;;5075664;28;20063;-50
2021/10/21 02:53:55;;;;;;;4.35;1.30;;;12.60;85.40;;;;;;5075497;28;20032;-47
2021/10/21 02:56:21;;;;;;;15.73;3.60;;;12.70;85.20;;;;;;5075457;28;20077;-47
2021/10/21 02:58:47;;;;;;;7.18;1.38;;;12.80;83.40;;;;;;5075483;28;20082;-48
2021/10/21 03:01:13;;;;;;;2.13;0.93;;;12.90;80.90;;;;;;5075309;28;20039;-47
2021/10/21 03:03:38;;;;;;;4.65;1.10;;;12.90;81.30;;;;;;5075530;28;20025;-47
2021/10/21 03:06:04;;;;;;;6.60;2.25;;;12.90;80.50;;;;;;5075562;28;20477;-47
2021/10/21 03:08:30;;;;;;;5.95;1.05;;;13.00;79.40;;;;;;5075218;28;20036;-47
2021/10/21 03:10:55;;;;;;;5.68;0.88;;;13.10;78.60;;;;;;5075432;28;20021;-47
2021/10/21 03:13:21;;;;;;;4.38;0.93;;;13.10;77.70;;;;;;5075290;28;20022;-47
2021/10/21 03:15:47;;;;;;;3.67;0.90;;;13.10;77.90;;;;;;5075224;28;20021;-47
2021/10/21 03:18:12;;;;;;;2.45;0.60;;;13.00;78.40;;;;;;5074905;28;20055;-52
2021/10/21 03:20:38;;;;;;;4.00;1.35;;;13.10;77.40;;;;;;5057553;28;20035;-50
2021/10/21 03:23:04;;;;;;;4.35;0.98;;;13.00;78.10;;;;;;5074691;28;20028;-47
2021/10/21 03:25:30;;;;;;;3.58;1.60;;;13.10;77.10;;;;;;5075047;28;20021;-48
2021/10/21 03:27:57;;;;;;;7.03;1.35;;;13.10;76.80;;;;;;5074712;28;20025;-48
2021/10/21 03:30:23;;;;;;;3.17;0.65;;;13.20;76.20;;;;;;5074745;28;20029;-47
2021/10/21 03:32:49;;;;;;;5.40;0.98;;;13.00;77.30;;;;;;5074677;28;20025;-47
2021/10/21 03:35:14;;;;;;;3.75;0.95;;;12.90;78.00;;;;;;5057448;28;20112;-46
2021/10/21 03:37:40;;;;;;;5.07;1.15;;;12.90;77.80;;;;;;5040653;28;20051;-48
2021/10/21 03:40:07;;;;;;;1.15;0.43;;;12.90;78.20;;;;;;5074600;28;20366;-47
2021/10/21 03:42:33;;;;;;;2.33;1.00;;;13.00;77.80;;;;;;5074754;28;20024;-47
2021/10/21 03:44:58;;;;;;;1.58;0.50;;;13.00;77.30;;;;;;5074768;28;20043;-46
2021/10/21 03:47:25;;;;;;;4.35;0.90;;;13.00;77.70;;;;;;5074625;28;20087;-48
2021/10/21 03:49:51;;;;;;;2.90;0.35;;;13.00;78.30;;;;;;5056473;28;20021;-50
2021/10/21 03:52:20;;;;;;;3.97;1.10;;;12.90;77.70;;;;;;5074362;28;20033;-52
2021/10/21 03:54:47;;;;;;;7.35;1.27;;;12.90;78.00;;;;;;5074654;28;20433;-47
2021/10/21 03:57:13;;;;;;;2.15;0.60;;;13.00;77.40;;;;;;5074472;28;20024;-50
2021/10/21 03:59:39;;;;;;;4.68;0.80;;;13.10;77.20;;;;;;5056269;28;20029;-46
2021/10/21 04:02:05;;;;;;;2.00;0.75;;;13.10;77.00;;;;;;5074021;28;20024;-47
2021/10/21 04:04:30;;;;;;;4.82;0.90;;;13.10;77.20;;;;;;5055868;28;20530;-48
2021/10/21 04:06:56;;;;;;;4.28;0.90;;;13.10;77.10;;;;;;5074775;28;20028;-48
2021/10/21 04:09:22;;;;;;;12.32;1.25;;;13.10;77.20;;;;;;5074213;28;20020;-47
2021/10/21 04:11:47;;;;;;;3.53;0.68;;;13.10;76.90;;;;;;5074122;28;20413;-47
2021/10/21 04:14:13;;;;;;;1.05;0.57;;;13.30;75.40;;;;;;5073998;28;20028;-47
2021/10/21 04:16:39;;;;;;;6.63;1.60;;;13.30;75.10;;;;;;5073902;28;20388;-48
2021/10/21 04:19:04;;;;;;;4.45;0.85;;;13.30;74.90;;;;;;5074154;28;20043;-48
2021/10/21 04:21:30;;;;;;;6.55;0.95;;;13.30;74.40;;;;;;5055769;28;20024;-48
2021/10/21 04:23:56;;;;;;;8.15;0.90;;;13.40;73.70;;;;;;5073595;28;20047;-49
2021/10/21 04:26:22;;;;;;;5.35;1.30;;;13.40;73.70;;;;;;5073475;28;20112;-49
2021/10/21 04:28:48;;;;;;;7.20;1.92;;;13.40;73.90;;;;;;5073817;28;20027;-49
2021/10/21 04:31:14;;;;;;;3.63;0.63;;;13.50;73.60;;;;;;5073631;28;20062;-48
2021/10/21 04:33:39;;;;;;;4.03;1.48;;;13.40;74.00;;;;;;5073863;28;20380;-50
2021/10/21 04:36:05;;;;;;;5.65;1.15;;;13.40;73.50;;;;;;5073589;28;20078;-51
2021/10/21 04:38:31;;;;;;;6.22;1.13;;;13.50;72.50;;;;;;5073486;28;20032;-47
2021/10/21 04:40:56;;;;;;;6.95;1.10;;;13.50;73.30;;;;;;5073824;28;20043;-49
2021/10/21 04:43:22;;;;;;;6.63;0.90;;;13.30;74.40;;;;;;5073596;28;20042;-49
2021/10/21 04:45:48;;;;;;;6.80;1.67;;;13.20;76.60;;;;;;5073337;28;20445;-48
2021/10/21 04:48:14;;;;;;;4.45;1.85;;;12.80;78.30;;;;;;5073564;28;20035;-47
2021/10/21 04:50:40;;;;;;;8.35;1.77;;;12.50;80.40;;;;;;5073306;28;20024;-47
2021/10/21 04:53:05;;;;;;;4.28;0.93;;;12.30;82.10;;;;;;5073334;28;20031;-47
2021/10/21 04:55:35;;;;;;;4.25;0.80;;;12.10;82.90;;;;;;5055181;28;20099;-47
2021/10/21 04:58:02;;;;;;;1.50;0.68;;;12.10;83.80;;;;;;5055024;28;20024;-48
2021/10/21 05:00:29;;;;;;;6.32;1.30;;;11.90;84.40;;;;;;5073294;28;20491;-48
2021/10/21 05:02:55;;;;;;;3.10;0.65;;;11.80;84.60;;;;;;5072280;28;20028;-47
2021/10/21 05:05:21;;;;;;;5.60;0.93;;;11.90;84.90;;;;;;5072910;28;20500;-46
2021/10/21 05:07:47;;;;;;;9.32;1.52;;;11.80;85.80;;;;;;5073270;28;20098;-47
2021/10/21 05:10:13;;;;;;;0.82;0.35;;;11.80;86.30;;;;;;5073736;28;20457;-47
2021/10/21 05:12:38;;;;;;;5.15;1.25;;;11.70;87.30;;;;;;5073064;28;20024;-48
2021/10/21 05:15:05;;;;;;;3.63;1.27;;;11.60;87.70;;;;;;5072895;28;20100;-48
2021/10/21 05:17:31;;;;;;;3.00;1.00;;;11.60;87.60;;;;;;5073193;28;20035;-47
2021/10/21 05:19:56;;;;;;;6.93;1.52;;;11.60;87.80;;;;;;5072726;28;20033;-48
2021/10/21 05:22:22;;;;;;;4.55;0.88;;;11.60;87.70;;;;;;5072786;28;20055;-52
2021/10/21 05:24:48;;;;;;;6.07;1.08;;;11.70;86.50;;;;;;5072862;28;20032;-49
2021/10/21 05:27:13;;;;;;;2.15;0.60;;;11.70;86.60;;;;;;5072753;28;20078;-48
2021/10/21 05:29:39;;;;;;;3.58;0.60;;;11.70;87.00;;;;;;5072821;28;20028;-52
2021/10/21 05:32:07;;;;;;;2.28;1.10;;;11.70;86.70;;;;;;5073001;28;20445;-50
2021/10/21 05:34:33;;;;;;;5.57;1.45;;;11.80;86.10;;;;;;5072997;28;20028;-48
2021/10/21 05:37:01;;;;;;;2.53;0.80;;;11.80;86.40;;;;;;5073084;28;20039;-49
2021/10/21 05:39:28;;;;;;;2.50;0.70;;;11.80;85.80;;;;;;5054712;28;20032;-48
2021/10/21 05:41:54;;;;;;;2.05;0.63;;;11.90;85.30;;;;;;5072555;28;20509;-46
2021/10/21 05:44:20;;;;;;;3.05;0.68;;;12.00;84.90;;;;;;5072634;28;20052;-47
2021/10/21 05:46:48;;;;;;;0.63;0.63;;;11.90;85.30;;;;;;5072663;28;20025;-48
2021/10/21 05:49:14;;;;;;;2.38;0.50;;;11.90;85.10;;;;;;5072697;28;20036;-47
2021/10/21 05:51:39;;;;;;;1.15;0.50;;;12.00;85.20;;;;;;5072826;28;20021;-49
2021/10/21 05:54:05;;;;;;;2.45;0.57;;;12.00;84.50;;;;;;5072789;28;20033;-48
2021/10/21 05:56:30;;;;;;;0.75;0.47;;;12.10;84.30;;;;;;5054480;28;20491;-48
2021/10/21 05:58:56;;;;;;;1.52;0.60;;;12.10;84.70;;;;;;5072420;28;20036;-49
2021/10/21 06:01:22;;;;;;;0.40;0.40;;;12.10;84.30;;;;;;5072383;28;20474;-46
2021/10/21 06:03:47;;;;;;;2.10;0.45;;;12.10;84.80;;;;;;5072367;28;20032;-51
2021/10/21 06:06:13;;;;;;;1.27;0.75;;;11.90;86.00;;;;;;5072861;28;20530;-51
2021/10/21 06:08:39;;;;;;;0.85;0.40;;;11.60;88.00;;;;;;5072482;28;20090;-46
2021/10/21 06:11:05;;;;;;;0.95;0.52;;;11.40;89.50;;;;;;5072590;28;20033;-50
2021/10/21 06:13:33;;;;;;;3.03;0.57;;;11.30;89.80;;;;;;5072970;28;20024;-46
2021/10/21 06:15:58;;;;;;;4.68;0.60;;;11.30;90.50;;;;;;5076146;28;20027;-49
2021/10/21 06:18:24;;;;;;;5.03;0.77;;;11.20;91.10;;;;;;5076462;28;20016;-49
2021/10/21 06:20:50;;;;;;;4.38;1.00;;;11.10;91.50;;;;;;5076087;28;20025;-48
2021/10/21 06:23:15;;;;;;;1.30;0.80;;;11.10;92.00;;;;;;5076115;28;20173;-51
2021/10/21 06:25:41;;;;;;;6.13;1.10;;;11.00;92.30;;;;;;5076065;28;20056;-49
2021/10/21 06:28:07;;;;;;;5.57;2.25;;;11.00;92.50;;;;;;5076277;28;20457;-48
2021/10/21 06:30:34;;;;;;;2.67;1.90;;;11.00;92.40;;;;;;5075761;28;20032;-48
2021/10/21 06:32:59;;;;;;;2.75;1.90;;;11.10;91.90;;;;;;5058087;28;20056;-47
2021/10/21 06:35:25;;;;;;;6.07;2.78;;;11.10;92.00;;;;;;5057794;28;20060;-46
2021/10/21 06:37:52;;;;;;;3.25;2.88;;;11.10;92.00;;;;;;5075790;28;20024;-46
2021/10/21 06:40:17;;;;;;;3.58;2.47;;;11.10;92.10;;;;;;5075762;28;20481;-49
2021/10/21 06:42:43;;;;;;;7.40;3.13;;;11.10;92.40;;;;;;5075546;28;20032;-47
2021/10/21 06:45:12;;;;;;;9.68;3.35;;;11.10;92.10;;;;;;5076292;28;20504;-48
2021/10/21 06:47:39;;;;;;;4.90;2.67;;;11.20;92.00;;;;;;5075800;28;20488;-49
2021/10/21 06:50:06;;;;;;;6.88;3.08;;;11.20;91.70;;;;;;5075753;28;20024;-47
2021/10/21 06:52:32;;;;;;;3.42;2.85;;;11.30;91.60;;;;;;5075339;28;20522;-48
2021/10/21 06:54:58;;;;;;;4.60;2.92;;;11.30;91.20;;;;;;5056764;28;20025;-49
2021/10/21 06:57:23;;;;;;;5.82;2.58;;;11.30;91.30;;;;;;5075054;28;20036;-49
2021/10/21 06:59:49;;;;;;;3.40;2.03;;;11.30;91.00;;;;;;5075777;28;20388;-48
2021/10/21 07:02:15;;;;;;;1.70;1.45;;;11.30;89.60;;;;;;5075690;28;20035;-51
2021/10/21 07:04:40;;;;;;;0.70;0.60;;;11.30;88.70;;;;;;5074962;28;20020;-49
2021/10/21 07:07:06;;;;;;;0.73;0.55;;;11.30;86.40;;;;;;5076489;28;20028;-48
2021/10/21 07:09:32;;;;;;;1.90;0.43;;;11.10;86.50;;;;;;5057209;28;20044;-47
2021/10/21 07:11:57;;;;;;;0.90;0.50;;;10.90;87.30;;;;;;5075928;28;20388;-49
2021/10/21 07:14:23;;;;;;;1.05;0.40;;;10.80;86.30;;;;;;5059183;28;20468;-49
2021/10/21 07:16:49;;;;;;;0.47;0.40;;;10.60;87.70;;;;;;5075618;28;20115;-50
2021/10/21 07:19:14;;;;;;;0.50;0.30;;;10.50;87.70;;;;;;5074887;28;20484;-49
2021/10/21 07:21:40;;;;;;;0.30;0.20;;;10.40;88.50;;;;;;5056688;28;20094;-48
2021/10/21 07:24:07;;;;;;;0.55;0.50;;;10.30;88.80;;;;;;5074974;28;20032;-52
2021/10/21 07:26:32;;;;;;;0.40;0.40;;;10.30;89.20;;;;;;5074142;28;20390;-51
2021/10/21 07:28:58;;;;;;;0.20;0.20;;;10.20;89.50;;;;;;5074669;28;20032;-48
2021/10/21 07:31:25;;;;;;;1.92;0.82;;;10.20;89.50;;;;;;5074205;28;20086;-49
2021/10/21 07:33:51;;;;;;;0.82;0.60;;;10.30;90.10;;;;;;5074679;28;20445;-48
2021/10/21 07:36:19;;;;;;;1.90;0.50;;;10.30;89.60;;;;;;5074491;28;20042;-48
2021/10/21 07:38:45;;;;;;;2.63;0.65;;;10.30;89.20;;;;;;5074379;28;20418;-52
2021/10/21 07:41:10;;;;;;;1.33;0.73;;;10.30;89.40;;;;;;5074209;28;20036;-48
2021/10/21 07:43:37;;;;;;;5.30;1.17;;;10.30;88.90;;;;;;5074156;28;20362;-49
2021/10/21 07:46:04;;;;;;;2.38;0.85;;;10.30;89.40;;;;;;5056135;28;20033;-48
2021/10/21 07:48:30;;;;;;;6.32;0.90;;;10.30;89.60;;;;;;5074013;28;20495;-49
2021/10/21 07:50:56;;;;;;;2.25;0.77;;;10.30;89.70;;;;;;5074101;28;20017;-49
2021/10/21 07:53:21;;;;;;;2.17;0.90;;;10.30;89.30;;;;;;5074117;28;20033;-51
2021/10/21 07:55:47;;;;;;;8.50;1.20;;;10.30;89.60;;;;;;5074255;28;20149;-52
2021/10/21 07:58:13;;;;;;;4.10;0.75;;;10.40;89.30;;;;;;5074181;28;20383;-47
2021/10/21 08:00:39;;;;;;;2.67;0.80;;;10.40;89.30;;;;;;5073980;28;20107;-49
2021/10/21 08:03:05;;;;;;;3.67;0.95;;;10.40;89.20;;;;;;5073804;28;20032;-49
2021/10/21 08:05:32;;;;;;;14.30;1.42;;;10.40;88.90;;;;;;5073700;28;20068;-48
2021/10/21 08:07:57;;;;;;;4.90;1.25;;;10.50;89.00;;;;;;5073852;28;20472;-52
2021/10/21 08:10:24;;;;;;;4.22;1.05;;;10.50;89.10;;;;;;5074011;28;20032;-50
2021/10/21 08:12:50;;;;;;;2.63;1.13;;;10.60;89.60;;;;;;5074110;28;20032;-48
2021/10/21 08:15:17;;;;;;;12.70;2.13;;;10.60;88.70;;;;;;5055829;28;20476;-47
2021/10/21 08:17:43;;;;;;;9.07;2.22;;;10.70;88.70;;;;;;5055775;28;20060;-51
2021/10/21 08:20:13;;;;;;;8.95;1.75;;;10.80;88.00;;;;;;5073684;28;20073;-53
2021/10/21 08:22:41;;;;;;;6.57;1.70;;;10.80;87.50;;;;;;5073829;28;20545;-47
2021/10/21 08:25:07;;;;;;;12.52;3.08;;;10.80;86.90;;;;;;5073397;28;20032;-48
2021/10/21 08:27:32;;;;;;;11.95;3.85;;;10.80;87.40;;;;;;5073847;28;20028;-47
2021/10/21 08:29:58;;;;;;;11.45;2.40;;;10.60;87.30;;;;;;5073267;28;20045;-48
2021/10/21 08:32:24;;;;;;;14.15;2.22;;;10.40;87.90;;;;;;5073535;28;20094;-48
2021/10/21 08:34:49;;;;;;;11.85;3.05;;;10.40;89.10;;;;;;5072821;28;20056;-49
2021/10/21 08:37:15;;;;;;;8.68;2.08;;;10.40;88.30;;;;;;5072298;28;20028;-49
2021/10/21 08:39:42;;;;;;;6.18;2.00;;;10.40;87.40;;;;;;5073070;28;20059;-49
2021/10/21 08:42:10;;;;;;;10.65;1.60;;;10.40;87.30;;;;;;5073073;28;20226;-48
2021/10/21 08:44:40;;;;;;;8.20;2.35;;;10.60;87.30;;;;;;5054968;28;20472;-49
2021/10/21 08:47:08;;;;;;;9.43;1.77;;;10.80;85.90;;;;;;5073212;28;20024;-48
2021/10/21 08:49:41;;;;;;;8.15;1.75;;;10.80;84.80;;;;;;5073113;28;20020;-48
2021/10/21 08:52:08;;;;;;;6.75;2.22;;;10.70;84.20;;;;;;5055367;28;20124;-48
2021/10/21 08:54:34;;;;;;;12.05;1.90;;;10.80;84.30;;;;;;5073049;28;20028;-47
2021/10/21 08:57:00;;;;;;;12.02;2.72;;;10.90;84.00;;;;;;5073237;28;20161;-47
2021/10/21 08:59:26;;;;;;;8.68;3.20;;;11.30;82.90;;;;;;5072684;28;20115;-47
2021/10/21 09:02:35;;;;;;;12.75;3.78;;;11.40;81.30;;;;;;5054666;28;20153;-47
2021/10/21 09:04:57;;;;;;;19.10;3.15;;;11.60;80.20;;;;;;5069269;28;20116;-46
2021/10/21 09:10:11;;;;;;;8.52;2.53;;;11.60;78.90;;;;;;5073501;28;20043;-48
2021/10/21 09:12:41;;;;;;;15.07;2.67;;;11.50;80.10;;;;;;5072711;28;20113;-49
2021/10/21 09:15:19;;;;;;;17.20;2.10;;;11.50;80.00;;;;;;5072640;28;20489;-47
2021/10/21 09:17:46;;;;;;;14.43;2.78;;;11.60;80.10;;;;;;5054552;28;20031;-49
2021/10/21 09:20:38;;;;;;;8.43;2.30;;;11.80;79.50;;;;;;5071944;28;20029;-46
2021/10/21 09:23:16;;;;;;;12.30;3.10;;;11.70;79.90;;;;;;5054263;28;20028;-46
2021/10/21 09:25:43;;;;;;;9.95;3.08;;;11.50;80.80;;;;;;5073332;28;20027;-47
2021/10/21 09:28:26;;;;;;;9.18;1.58;;;11.70;79.90;;;;;;5054660;28;20033;-47
2021/10/21 09:30:57;;;;;;;6.53;1.88;;;11.80;78.10;;;;;;5072766;28;20074;-48
2021/10/21 09:33:24;;;;;;;9.15;2.15;;;11.80;78.00;;;;;;5072172;28;20513;-47
2021/10/21 09:35:59;;;;;;;18.35;2.80;;;11.80;78.30;;;;;;5072414;28;20020;-48
2021/10/21 09:38:27;;;;;;;9.48;2.47;;;11.80;79.00;;;;;;5053671;28;20044;-48
2021/10/21 09:40:53;;;;;;;5.95;1.40;;;11.80;77.10;;;;;;5053895;28;20083;-48
2021/10/21 09:43:31;;;;;;;9.88;2.28;;;12.30;75.20;;;;;;5072386;28;20070;-49
2021/10/21 09:45:58;;;;;;;7.53;1.92;;;12.80;74.10;;;;;;5072854;28;20025;-49
2021/10/21 09:48:24;;;;;;;13.63;3.90;;;13.30;72.30;;;;;;5072310;28;20048;-49
2021/10/21 09:50:50;;;;;;;9.85;2.28;;;13.00;71.70;;;;;;5058048;28;20040;-47
2021/10/21 09:53:29;;;;;;;4.40;1.58;;;13.30;70.50;;;;;;5076547;28;20031;-51
2021/10/21 09:56:06;;;;;;;14.60;3.30;;;13.60;69.30;;;;;;5076192;28;20066;-48
2021/10/21 09:58:41;;;;;;;11.52;2.65;;;12.80;70.70;;;;;;5076178;28;20071;-49
2021/10/21 10:01:09;;;;;;;9.32;1.90;;;12.60;72.70;;;;;;5076051;28;20064;-47
2021/10/21 10:03:37;;;;;;;15.73;3.80;;;12.50;73.20;;;;;;5058225;28;20059;-48
2021/10/21 10:06:03;;;;;;;10.32;2.38;;;12.60;74.60;;;;;;5075858;28;20059;-48
2021/10/21 10:08:30;;;;;;;6.90;2.08;;;12.60;72.80;;;;;;5075994;28;20016;-49
2021/10/21 10:11:00;;;;;;;5.68;2.22;;;12.80;71.60;;;;;;5076349;28;20131;-49
2021/10/21 10:13:27;;;;;;;;;;;13.00;70.50;;;;;;5076133;28;20553;-49
2021/10/21 10:15:58;;;;;;;8.05;1.88;;;13.00;70.40;;;;;;5075718;28;19912;-47
2021/10/21 10:18:27;;;;;;;;;;;12.60;72.50;;;;;;5075913;28;20032;-49
2021/10/21 10:21:21;;;;;;;7.25;1.98;;;12.30;72.40;;;;;;5075785;28;19957;-46
2021/10/21 10:23:54;;;;;;;8.75;2.22;;;12.00;74.10;;;;;;5075851;28;20031;-47
2021/10/21 10:26:48;;;;;;;12.02;3.20;;;12.00;75.60;;;;;;5075759;28;20020;-46
2021/10/21 10:29:41;;;;;;;9.18;2.38;;;11.50;79.60;;;;;;5075693;28;20334;-46
2021/10/21 10:32:29;;;;;;;5.82;2.55;;;11.30;80.60;;;;;;5065158;28;20135;-47
2021/10/21 10:34:55;;;;;;;13.55;2.28;;;11.20;80.70;;;;;;5075448;28;20108;-46
2021/10/21 10:37:21;;;;;;;11.63;3.72;;;11.10;81.20;;;;;;5075740;28;20028;-47
2021/10/21 10:40:01;;;;;;;5.53;2.53;;;10.90;82.30;;;;;;5075632;28;20086;-47
2021/10/21 10:42:30;;;;;;;11.68;2.55;;;10.90;82.90;;;;;;5041003;28;20476;-48
2021/10/21 10:44:59;;;;;;;6.00;1.95;;;10.70;83.00;;;;;;5075477;28;20020;-48
2021/10/21 10:47:44;;;;;;;11.50;2.45;;;10.70;83.80;;;;;;5075115;28;20119;-46
2021/10/21 10:50:22;;;;;;;6.95;2.00;;;10.60;83.60;;;;;;5075400;28;20070;-47
2021/10/21 10:52:59;;;;;;;5.65;1.75;;;10.60;83.50;;;;;;5057457;28;20031;-47
2021/10/21 10:55:27;;;;;;;4.78;1.55;;;10.70;82.60;;;;;;5057218;28;20056;-48
2021/10/21 10:57:57;;;;;;;7.03;1.50;;;10.80;82.40;;;;;;5074835;28;20067;-47
2021/10/21 11:00:49;;;;;;;3.65;2.60;;;10.80;83.20;;;;;;5040235;28;20056;-49
2021/10/21 11:03:34;;;;;;;6.80;1.58;;;10.90;81.80;;;;;;5075265;28;20054;-49
2021/10/21 11:06:12;;;;;;;11.07;2.88;;;11.00;81.40;;;;;;5074910;28;20497;-49
2021/10/21 11:08:48;;;;;;;11.43;1.98;;;11.00;81.10;;;;;;5057318;28;20023;-48
2021/10/21 11:11:35;;;;;;;7.07;2.75;;;11.10;80.10;;;;;;5074954;28;20121;-50
2021/10/21 11:14:07;;;;;;;4.85;1.33;;;11.10;80.30;;;;;;5056932;28;20021;-48
2021/10/21 11:16:43;;;;;;;3.17;1.33;;;11.20;78.00;;;;;;5056980;28;20029;-48
2021/10/21 11:19:30;;;;;;;2.83;1.30;;;11.10;79.00;;;;;;5074836;28;20024;-47
2021/10/21 11:21:55;;;;;;;5.57;1.30;;;11.20;77.80;;;;;;5074087;28;20112;-47
2021/10/21 11:27:12;;;;;;;7.40;1.17;;;10.90;80.70;;;;;;5074831;28;20115;-50
2021/10/21 11:29:38;;;;;;;5.88;1.45;;;10.80;81.50;;;;;;5056400;28;20376;-46
2021/10/21 11:32:05;;;;;;;6.00;1.08;;;10.80;81.80;;;;;;5056415;28;20024;-47
2021/10/21 11:34:31;;;;;;;16.75;3.50;;;10.80;81.90;;;;;;5055969;28;20392;-47
2021/10/21 11:36:57;;;;;;;7.53;1.77;;;10.80;83.30;;;;;;5056304;28;20021;-47
2021/10/21 11:39:37;;;;;;;14.20;3.53;;;10.70;83.80;;;;;;5074209;28;20531;-46
2021/10/21 11:42:11;;;;;;;4.68;1.48;;;10.50;85.20;;;;;;5074149;28;20056;-47
2021/10/21 11:44:39;;;;;;;9.90;3.83;;;10.50;84.90;;;;;;5054783;28;20072;-47
2021/10/21 11:47:09;;;;;;;4.28;1.70;;;10.50;85.70;;;;;;5055735;28;20472;-48
2021/10/21 11:49:37;;;;;;;8.30;1.58;;;10.70;85.00;;;;;;5055613;28;20017;-48
2021/10/21 11:52:07;;;;;;;7.55;2.05;;;10.70;84.40;;;;;;5055239;28;20093;-48
2021/10/21 11:54:33;;;;;;;8.70;1.60;;;10.90;83.70;;;;;;5055391;28;20537;-50
2021/10/21 11:57:00;;;;;;;3.50;1.25;;;11.10;81.10;;;;;;5055608;28;20028;-51
2021/10/21 11:59:36;;;;;;;6.78;1.83;;;11.50;80.30;;;;;;5055203;28;20033;-48
2021/10/21 12:02:13;;;;;;;2.58;1.30;;;11.90;78.40;;;;;;5073588;28;20032;-48
2021/10/21 12:04:41;;;;;;;8.40;1.95;;;12.30;76.40;;;;;;5039204;28;20036;-47
2021/10/21 12:07:08;;;;;;;2.10;0.98;;;12.20;76.10;;;;;;5052061;28;20025;-46
2021/10/21 12:09:42;;;;;;;1.17;0.70;;;12.00;74.60;;;;;;5075424;28;20020;-42
2021/10/21 12:12:30;;;;;;;4.38;1.13;;;12.00;74.70;;;;;;5039952;28;20035;-39
2021/10/21 12:15:03;;;;;;;2.67;0.80;;;11.80;73.00;;;;;;5052225;28;20068;-39
2021/10/21 12:17:29;;;;;;;2.10;1.05;;;11.80;73.20;;;;;;5055881;28;20131;-39
2021/10/21 12:19:55;;;;;;;0.80;0.50;;;11.60;72.20;;;;;;5056005;28;20056;-39
2021/10/21 12:22:24;;;;;;;0.65;0.50;;;11.60;72.50;;;;;;5073902;28;20417;-38
2021/10/21 12:24:49;;;;;;;2.83;1.02;;;11.70;72.90;;;;;;5055651;28;20058;-37
2021/10/21 12:27:24;;;;;;;2.35;0.93;;;11.80;72.80;;;;;;5072952;28;20020;-38
2021/10/21 12:29:59;;;;;;;3.45;1.02;;;11.80;72.70;;;;;;5072780;28;20020;-37
2021/10/21 12:32:25;;;;;;;1.77;0.60;;;11.90;73.00;;;;;;5072802;28;20047;-36
2021/10/21 12:35:01;;;;;;;4.20;1.05;;;11.80;72.80;;;;;;5072788;28;20029;-37
2021/10/21 12:37:28;;;;;;;5.45;1.02;;;11.80;72.60;;;;;;5073346;28;20096;-38
2021/10/21 12:40:10;;;;;;;2.45;0.68;;;12.10;72.70;;;;;;5072745;28;20033;-38
2021/10/21 12:42:36;;;;;;;3.75;0.98;;;12.20;72.30;;;;;;5072838;28;20065;-38
2021/10/21 12:45:01;;;;;;;3.03;1.30;;;12.10;72.90;;;;;;5073023;28;20076;-37
2021/10/21 12:47:37;;;;;;;6.07;0.90;;;12.00;73.20;;;;;;5055247;28;20465;-37
2021/10/21 12:50:11;;;;;;;5.63;1.75;;;11.90;73.80;;;;;;5072817;28;20481;-39
2021/10/21 12:52:44;;;;;;;4.97;1.20;;;11.90;73.90;;;;;;5055137;28;20016;-37
2021/10/21 12:55:19;;;;;;;3.90;0.98;;;11.90;73.40;;;;;;5073000;28;20024;-37